Flugplatz Wyk auf Föhr

Für EDXY sind keine METAR/TAF Berichte vorhanden.
Es werden die Flugwettermeldungen vom Flugplatz Westerland Sylt in 27 km Entfernung angezeigt.

Prognose für EDXW

vom 23.05. um 17:00 UTC

Zwischen 18:00 UTC und 21:00 UTC

Wind 9 kt aus 240°

Sichtweite 10 km oder mehr

keine signifikanten Wettererscheinungen

keine Wolken

TAF EDXW 231700Z 2318/2321 24009KT CAVOK
Impressum